Time;durP1;ratioP1;P1;durP2;ratioP2;P2;SDS_P1;SDS_P2;PMS_P1;PMS_P2;Temp;Humidity;BMP_temperature;BMP_pressure;BME280_temperature;BME280_humidity;BME280_pressure;Samples;Min_cycle;Max_cycle;Signal;HPM_P1;HPM_P2
2022/08/01 00:01:16;;;;;;;3.75;1.90;;;;;;;26.80;46.64;101218.53;5007199;28;20099;-72
2022/08/01 00:03:46;;;;;;;2.90;1.85;;;;;;;26.82;46.78;101210.00;4988853;28;20049;-73
2022/08/01 00:06:14;;;;;;;4.30;1.90;;;;;;;26.78;47.12;101203.94;4999605;28;20073;-73
2022/08/01 00:08:42;;;;;;;3.40;2.00;;;;;;;26.77;46.76;101205.00;4987983;28;20053;-73
2022/08/01 00:11:10;;;;;;;3.65;1.98;;;;;;;26.78;47.10;101212.28;4987163;28;20385;-73
2022/08/01 00:13:38;;;;;;;3.50;1.65;;;;;;;26.76;46.87;101217.22;4984423;28;20065;-73
2022/08/01 00:16:06;;;;;;;4.95;1.90;;;;;;;26.76;46.92;101213.56;4995859;28;20126;-72
2022/08/01 00:18:35;;;;;;;2.60;1.73;;;;;;;26.75;47.10;101217.44;5004768;28;20445;-73
2022/08/01 00:21:05;;;;;;;3.25;1.95;;;;;;;26.75;47.21;101212.72;5006790;28;20402;-73
2022/08/01 00:23:33;;;;;;;2.92;1.95;;;;;;;26.72;47.00;101209.44;5004001;28;20038;-72
2022/08/01 00:26:01;;;;;;;4.07;1.67;;;;;;;26.72;46.86;101213.09;5003685;28;20076;-73
2022/08/01 00:28:29;;;;;;;2.83;2.00;;;;;;;26.72;46.80;101213.09;4984670;28;20047;-73
2022/08/01 00:30:57;;;;;;;4.05;2.25;;;;;;;26.71;46.75;101218.88;4999407;28;20042;-73
2022/08/01 00:33:25;;;;;;;3.70;1.95;;;;;;;26.71;46.96;101219.72;5001373;28;20057;-73
2022/08/01 00:35:53;;;;;;;4.03;2.20;;;;;;;26.69;46.70;101219.06;4983876;28;20061;-73
2022/08/01 00:38:23;;;;;;;4.53;2.30;;;;;;;26.70;46.85;101211.56;5007522;28;20048;-73
2022/08/01 00:40:53;;;;;;;3.67;2.60;;;;;;;26.64;46.50;101210.44;5008330;28;20570;-73
2022/08/01 00:43:21;;;;;;;4.07;2.05;;;;;;;26.65;46.38;101214.09;4989253;28;20096;-73
2022/08/01 00:45:49;;;;;;;3.65;2.25;;;;;;;26.63;46.56;101221.78;5003870;28;20060;-73
2022/08/01 00:48:17;;;;;;;3.55;2.35;;;;;;;26.61;46.86;101216.41;4991566;28;20046;-72
2022/08/01 00:50:46;;;;;;;3.72;2.00;;;;;;;26.59;46.71;101207.41;5007574;28;20046;-73
2022/08/01 00:53:14;;;;;;;3.67;2.03;;;;;;;26.59;46.66;101217.69;4991009;28;20117;-72
2022/08/01 00:55:48;;;;;;;3.30;2.28;;;;;;;26.57;46.64;101212.31;5001935;28;20049;-73
2022/08/01 00:58:16;;;;;;;3.45;2.13;;;;;;;26.57;47.07;101211.44;5010039;28;20431;-73
2022/08/01 01:00:44;;;;;;;5.32;2.30;;;;;;;26.56;46.83;101215.28;5004333;28;20486;-73
2022/08/01 01:03:22;;;;;;;4.60;2.20;;;;;;;26.56;46.78;101215.28;5004189;28;20046;-73
2022/08/01 01:06:27;;;;;;;4.35;2.25;;;;;;;26.55;47.02;101216.34;4985642;28;20100;-73
2022/08/01 01:09:12;;;;;;;3.42;2.15;;;;;;;26.55;46.67;101210.78;4990232;28;20054;-73
2022/08/01 01:11:49;;;;;;;3.60;2.28;;;;;;;26.53;46.97;101214.63;4985941;28;20050;-73
2022/08/01 01:14:28;;;;;;;3.17;2.03;;;;;;;26.53;46.45;101213.75;4991885;28;20153;-72
2022/08/01 01:16:59;;;;;;;3.08;2.13;;;;;;;26.50;46.33;101212.25;5009013;28;20557;-73
2022/08/01 01:19:34;;;;;;;3.88;2.10;;;;;;;26.51;46.77;101213.97;5000015;28;20445;-73
2022/08/01 01:22:17;;;;;;;3.60;2.10;;;;;;;26.49;46.59;101209.66;5003802;28;20384;-73
2022/08/01 01:24:57;;;;;;;3.50;1.90;;;;;;;26.46;46.82;101212.81;5004184;28;20057;-73
2022/08/01 01:27:43;;;;;;;4.32;2.33;;;;;;;26.45;46.46;101211.97;5001755;28;20495;-73
2022/08/01 01:30:13;;;;;;;3.90;2.33;;;;;;;26.43;46.63;101210.44;4995883;28;20419;-73
2022/08/01 01:32:46;;;;;;;4.03;2.30;;;;;;;26.43;46.73;101211.31;4991193;28;20042;-73
2022/08/01 01:35:18;;;;;;;3.92;2.05;;;;;;;26.41;46.69;101209.78;4985233;28;20140;-73
2022/08/01 01:37:48;;;;;;;3.72;2.00;;;;;;;26.38;46.32;101213.81;4990492;28;20337;-72
2022/08/01 01:40:18;;;;;;;3.22;2.20;;;;;;;26.38;46.27;101211.03;5002661;28;20073;-72
2022/08/01 01:42:48;;;;;;;3.58;2.30;;;;;;;26.38;46.23;101211.03;5015501;28;20073;-72
2022/08/01 01:45:19;;;;;;;4.03;2.20;;;;;;;26.39;46.67;101223.03;4991519;28;20143;-73
2022/08/01 01:47:47;;;;;;;4.28;2.40;;;;;;;26.35;46.32;101217.00;4994254;28;20093;-73
2022/08/01 01:50:16;;;;;;;4.63;2.30;;;;;;;26.36;46.49;101217.84;5000229;28;20507;-72
2022/08/01 01:52:46;;;;;;;3.75;2.05;;;;;;;26.35;46.48;101219.78;4990716;28;20081;-72
2022/08/01 01:55:17;;;;;;;3.65;2.10;;;;;;;26.35;46.63;101224.50;5001961;28;20057;-72
2022/08/01 01:57:46;;;;;;;3.83;2.17;;;;;;;26.32;46.66;101222.97;5005908;28;20121;-72
2022/08/01 02:00:16;;;;;;;3.10;1.92;;;;;;;26.32;46.62;101219.31;4981290;28;20565;-72
2022/08/01 02:02:46;;;;;;;3.85;2.25;;;;;;;26.32;46.39;101217.38;5001485;28;20543;-72
2022/08/01 02:05:16;;;;;;;3.08;1.98;;;;;;;26.30;46.66;101221.41;4974511;28;20100;-72
2022/08/01 02:07:45;;;;;;;3.22;2.08;;;;;;;26.30;46.88;101213.06;4990763;28;20053;-72
2022/08/01 02:10:18;;;;;;;4.10;2.08;;;;;;;26.28;46.69;101212.38;4992725;28;20440;-72
2022/08/01 02:12:49;;;;;;;3.53;2.10;;;;;;;26.27;46.41;101214.34;4998335;28;20410;-72
2022/08/01 02:15:20;;;;;;;3.40;2.10;;;;;;;26.26;46.76;101207.03;4988466;28;20136;-72
2022/08/01 02:17:52;;;;;;;3.47;2.00;;;;;;;26.26;46.71;101201.47;4993300;28;20100;-73
2022/08/01 02:20:20;;;;;;;;;;;;;;;25.97;47.35;101202.34;4976864;28;20286;-73
2022/08/01 02:22:52;;;;;;;2.97;1.83;;;;;;;26.20;46.25;101213.34;5003884;28;19952;-72
2022/08/01 02:25:24;;;;;;;3.70;2.00;;;;;;;26.21;46.68;101209.50;4975728;28;20049;-73
2022/08/01 02:28:00;;;;;;;3.63;2.30;;;;;;;26.21;46.95;101206.72;5004697;28;20048;-72
2022/08/01 02:30:33;;;;;;;3.80;2.20;;;;;;;26.19;46.87;101208.81;4989007;28;20108;-72
2022/08/01 02:33:08;;;;;;;4.00;2.20;;;;;;;26.20;46.72;101202.22;5004000;28;20368;-72
2022/08/01 02:35:46;;;;;;;3.60;2.05;;;;;;;26.18;46.96;101204.34;5000983;28;20042;-72
2022/08/01 02:38:38;;;;;;;3.30;1.90;;;;;;;26.13;46.93;101198.47;5010955;28;20081;-72
2022/08/01 02:41:09;;;;;;;4.32;2.60;;;;;;;26.13;46.87;101202.13;4990282;28;20061;-72
2022/08/01 02:43:39;;;;;;;4.80;2.30;;;;;;;26.15;46.94;101200.03;5008795;28;20045;-72
2022/08/01 02:46:12;;;;;;;3.70;2.38;;;;;;;26.15;46.94;101200.03;5000107;28;20568;-72
2022/08/01 02:48:44;;;;;;;4.00;2.42;;;;;;;26.14;47.08;101209.44;4988884;28;20515;-72
2022/08/01 02:51:15;;;;;;;3.30;2.22;;;;;;;26.14;47.20;101206.66;5003320;28;20050;-73
2022/08/01 02:53:45;;;;;;;6.97;2.40;;;;;;;26.11;47.09;101209.81;4995294;28;20501;-72
2022/08/01 02:56:14;;;;;;;4.22;2.80;;;;;;;26.14;47.23;101203.00;4990594;28;20294;-72
2022/08/01 02:58:43;;;;;;;5.18;2.55;;;;;;;26.13;47.13;101209.63;5001617;28;20523;-72
2022/08/01 03:01:14;;;;;;;4.38;2.50;;;;;;;26.13;47.17;101206.84;4994947;28;20427;-72
2022/08/01 03:03:44;;;;;;;3.95;2.42;;;;;;;26.14;47.35;101197.44;5006832;28;20219;-72
2022/08/01 03:06:14;;;;;;;3.83;2.63;;;;;;;26.13;47.20;101204.91;5009356;28;20148;-73
2022/08/01 03:08:43;;;;;;;4.63;2.60;;;;;;;26.13;47.35;101206.84;4991401;28;20506;-72
2022/08/01 03:11:13;;;;;;;4.13;2.63;;;;;;;26.13;47.14;101207.69;5000316;28;20059;-73
2022/08/01 03:13:43;;;;;;;4.40;2.83;;;;;;;26.13;47.12;101204.91;5005233;28;20431;-73
2022/08/01 03:16:14;;;;;;;5.40;2.58;;;;;;;26.14;47.24;101208.56;5009463;28;20129;-72
2022/08/01 03:18:45;;;;;;;4.05;2.70;;;;;;;26.11;47.37;101204.25;4988038;28;20058;-73
2022/08/01 03:21:15;;;;;;;4.77;2.70;;;;;;;26.11;47.12;101214.50;4981117;28;20062;-73
2022/08/01 03:23:44;;;;;;;5.50;2.92;;;;;;;26.12;47.12;101214.31;4990132;28;20080;-72
2022/08/01 03:26:13;;;;;;;4.82;2.83;;;;;;;26.10;47.08;101213.69;4996175;28;20416;-73
2022/08/01 03:28:43;;;;;;;4.13;2.92;;;;;;;26.13;47.24;101218.84;5000188;28;20543;-72
2022/08/01 03:31:14;;;;;;;5.13;3.10;;;;;;;26.13;47.49;101220.75;5001801;28;20050;-73
2022/08/01 03:33:44;;;;;;;4.80;3.15;;;;;;;26.11;47.09;101226.50;5004665;28;20046;-73
2022/08/01 03:36:14;;;;;;;6.72;3.47;;;;;;;26.12;47.06;101230.16;4980390;28;20137;-72
2022/08/01 03:38:46;;;;;;;5.80;3.50;;;;;;;26.12;47.20;101217.09;5009024;28;20585;-73
2022/08/01 03:41:20;;;;;;;4.82;3.90;;;;;;;26.12;47.36;101224.59;5021772;28;20062;-73
2022/08/01 03:43:55;;;;;;;4.95;3.28;;;;;;;26.12;47.42;101221.81;4987942;28;20067;-73
2022/08/01 03:46:30;;;;;;;5.35;3.88;;;;;;;26.12;47.15;101225.44;4995111;28;20511;-72
2022/08/01 03:49:06;;;;;;;5.80;4.13;;;;;;;26.12;47.71;101221.81;4983594;28;20410;-72
2022/08/01 03:51:35;;;;;;;6.75;4.38;;;;;;;26.08;47.35;101217.69;4978205;28;20092;-72
2022/08/01 03:54:05;;;;;;;6.55;5.07;;;;;;;26.09;47.44;101220.28;5004121;28;20129;-72
2022/08/01 03:56:34;;;;;;;6.78;4.50;;;;;;;26.08;47.53;101226.06;5009095;28;20375;-73
2022/08/01 03:59:04;;;;;;;7.40;4.65;;;;;;;26.07;47.17;101221.53;4988989;28;20084;-72
2022/08/01 04:01:33;;;;;;;8.50;4.53;;;;;;;26.05;47.30;101221.72;5005253;28;20144;-72
2022/08/01 04:04:04;;;;;;;7.13;4.65;;;;;;;26.06;47.38;101220.69;4989370;28;20038;-72
2022/08/01 04:06:33;;;;;;;6.35;4.40;;;;;;;26.01;47.59;101220.41;4991799;28;20503;-73
2022/08/01 04:09:01;;;;;;;6.38;4.80;;;;;;;26.03;47.40;101218.28;5007514;28;20072;-73
2022/08/01 04:11:29;;;;;;;7.65;4.82;;;;;;;26.03;47.41;101221.06;5008856;28;20049;-73
2022/08/01 04:13:57;;;;;;;6.50;4.30;;;;;;;26.02;47.62;101218.50;4991031;28;20153;-73
2022/08/01 04:16:25;;;;;;;8.73;4.80;;;;;;;26.02;47.44;101222.13;4981245;28;20104;-73
2022/08/01 04:18:53;;;;;;;7.60;4.82;;;;;;;26.01;47.45;101214.84;4987102;28;20063;-73
2022/08/01 04:21:27;;;;;;;7.80;4.97;;;;;;;26.04;47.71;101217.22;5005300;28;20042;-74
2022/08/01 04:23:59;;;;;;;7.55;5.03;;;;;;;26.04;47.75;101220.00;5011904;28;20504;-73
2022/08/01 04:26:29;;;;;;;7.27;5.00;;;;;;;26.01;47.67;101220.41;5009105;28;20562;-73
2022/08/01 04:28:57;;;;;;;7.07;5.28;;;;;;;26.01;47.77;101219.53;5002130;28;20385;-73
2022/08/01 04:31:28;;;;;;;7.72;5.13;;;;;;;26.01;47.53;101234.31;5013285;28;20042;-73
2022/08/01 04:34:02;;;;;;;9.50;5.28;;;;;;;26.01;47.86;101237.09;4984950;28;20121;-73
2022/08/01 04:36:34;;;;;;;8.00;5.82;;;;;;;26.01;47.68;101242.66;4994986;28;20053;-73
2022/08/01 04:39:04;;;;;;;8.68;5.55;;;;;;;25.98;47.71;101237.47;5011180;28;20515;-73
2022/08/01 04:41:35;;;;;;;7.22;5.28;;;;;;;26.00;47.62;101243.72;4988390;28;20094;-73
2022/08/01 04:44:04;;;;;;;7.68;5.25;;;;;;;26.00;47.87;101240.06;4996578;28;20046;-73
2022/08/01 04:46:34;;;;;;;8.30;5.30;;;;;;;26.01;47.61;101250.16;5004986;28;20034;-73
2022/08/01 04:49:02;;;;;;;9.20;5.78;;;;;;;25.99;47.82;101238.34;4992207;28;20096;-73
2022/08/01 04:51:32;;;;;;;9.98;6.05;;;;;;;26.01;47.67;101247.38;4982899;28;20068;-73
2022/08/01 04:54:00;;;;;;;7.97;5.75;;;;;;;25.99;47.68;101249.47;5001372;28;20394;-73
2022/08/01 04:56:28;;;;;;;9.85;6.15;;;;;;;25.99;47.55;101255.03;5014711;28;20397;-73
2022/08/01 05:01:50;;;;;;;7.40;5.93;;;;;;;26.00;47.79;101257.63;5008932;28;20041;-73
2022/08/01 05:04:18;;;;;;;8.70;5.63;;;;;;;25.96;47.88;101266.53;4998223;28;20049;-73
2022/08/01 05:06:48;;;;;;;9.32;6.15;;;;;;;26.00;47.97;101263.19;4994066;28;20273;-73
2022/08/01 05:09:16;;;;;;;7.85;5.13;;;;;;;25.98;47.98;101270.88;4997911;28;20057;-73
2022/08/01 05:11:44;;;;;;;8.38;5.82;;;;;;;25.98;47.98;101272.78;4996640;28;20502;-73
2022/08/01 05:14:12;;;;;;;8.27;6.20;;;;;;;25.98;47.99;101264.44;4996416;28;20050;-73
2022/08/01 05:16:41;;;;;;;9.63;6.25;;;;;;;25.97;47.83;101274.72;4993351;28;20069;-74
2022/08/01 05:19:10;;;;;;;8.02;5.68;;;;;;;25.96;47.53;101269.31;5010189;28;20319;-73
2022/08/01 05:21:38;;;;;;;8.52;5.47;;;;;;;25.96;47.65;101266.53;4994423;28;20503;-74
2022/08/01 05:24:08;;;;;;;8.23;5.57;;;;;;;25.97;47.63;101273.84;5003704;28;20046;-73
2022/08/01 05:26:36;;;;;;;7.60;6.05;;;;;;;25.94;47.71;101265.91;4994951;28;20538;-73
2022/08/01 05:29:05;;;;;;;7.30;5.32;;;;;;;25.93;47.76;101270.59;4991055;28;20495;-73
2022/08/01 05:31:34;;;;;;;7.35;5.32;;;;;;;25.93;47.55;101267.81;4993124;28;20048;-73
2022/08/01 05:34:03;;;;;;;6.65;4.68;;;;;;;25.93;47.81;101278.06;5010763;28;20527;-74
2022/08/01 05:36:31;;;;;;;7.78;5.35;;;;;;;25.93;47.65;101275.28;4977767;28;20042;-73
2022/08/01 05:39:00;;;;;;;7.63;5.65;;;;;;;25.94;47.42;101280.69;4990835;28;20519;-73
2022/08/01 05:41:29;;;;;;;8.00;5.18;;;;;;;25.95;47.56;101285.16;5004409;28;20042;-73
2022/08/01 05:43:57;;;;;;;7.55;5.55;;;;;;;25.94;48.01;101289.03;5002260;28;20042;-73
2022/08/01 05:46:25;;;;;;;7.13;5.05;;;;;;;25.95;47.63;101284.28;4996058;28;20058;-73
2022/08/01 05:48:54;;;;;;;7.68;4.97;;;;;;;25.95;47.52;101282.38;5003885;28;20096;-73
2022/08/01 05:51:23;;;;;;;6.68;4.88;;;;;;;25.95;47.57;101282.38;4999949;28;20038;-73
2022/08/01 05:53:51;;;;;;;8.82;5.25;;;;;;;25.96;47.83;101286.03;5021418;22;20050;-85
2022/08/01 05:56:19;;;;;;;7.32;4.95;;;;;;;25.98;47.67;101286.69;5056122;28;20078;-85
2022/08/01 05:58:49;;;;;;;9.00;5.18;;;;;;;26.00;47.63;101291.03;5053905;28;20075;-85
2022/08/01 06:01:17;;;;;;;7.38;4.72;;;;;;;26.02;47.77;101290.84;5051574;28;20110;-85
2022/08/01 06:03:46;;;;;;;8.50;5.47;;;;;;;26.04;47.77;101288.69;5056310;28;20032;-80
2022/08/01 06:06:14;;;;;;;6.85;5.43;;;;;;;26.04;47.72;101289.56;5075483;28;20041;-80
2022/08/01 06:08:42;;;;;;;7.80;5.82;;;;;;;26.06;47.75;101292.16;5056398;28;20041;-80
2022/08/01 06:11:10;;;;;;;9.05;5.70;;;;;;;26.09;47.63;101289.00;5051054;28;20056;-80
2022/08/01 06:13:41;;;;;;;8.30;4.93;;;;;;;26.10;47.85;101291.59;5054171;28;20071;-80
2022/08/01 06:16:21;;;;;;;7.13;4.57;;;;;;;26.17;47.45;101299.16;5064903;28;20053;-79
2022/08/01 06:18:49;;;;;;;6.55;4.95;;;;;;;26.14;47.22;101287.34;5046628;28;20472;-80
2022/08/01 06:21:23;;;;;;;7.50;4.93;;;;;;;26.18;47.22;101292.56;5066981;28;20491;-80
2022/08/01 06:23:51;;;;;;;5.82;4.57;;;;;;;26.20;47.17;101284.84;5071955;28;20048;-80
2022/08/01 06:26:19;;;;;;;5.68;3.60;;;;;;;26.22;46.50;101280.81;5072232;28;20040;-78
2022/08/01 06:28:47;;;;;;;6.97;4.72;;;;;;;26.25;47.18;101276.78;5053448;28;20352;-79
2022/08/01 06:31:15;;;;;;;7.93;4.75;;;;;;;26.27;47.28;101277.50;5064238;28;20087;-80
2022/08/01 06:33:44;;;;;;;6.28;4.82;;;;;;;26.34;47.38;101276.53;5071016;28;20051;-87
2022/08/01 06:36:13;;;;;;;7.78;5.32;;;;;;;26.35;47.45;101274.63;5046985;28;20056;-87
2022/08/01 06:38:44;;;;;;;6.57;5.00;;;;;;;26.40;47.46;101278.53;5040165;28;20508;-88
2022/08/01 06:41:21;;;;;;;7.18;5.13;;;;;;;26.46;47.35;101277.72;5068568;28;20052;-87
2022/08/01 06:43:56;;;;;;;6.85;4.95;;;;;;;26.49;47.44;101273.69;5056932;28;20041;-87
2022/08/01 06:46:24;;;;;;;7.97;5.68;;;;;;;26.50;47.03;101279.09;5036434;28;20128;-87
2022/08/01 06:49:02;;;;;;;6.90;5.10;;;;;;;26.55;47.09;101283.19;5046975;28;20036;-87
2022/08/01 06:51:38;;;;;;;7.38;4.93;;;;;;;26.55;47.08;101280.41;5053519;28;20048;-87
2022/08/01 06:54:19;;;;;;;6.85;5.18;;;;;;;26.60;47.02;101272.34;5062372;28;20451;-87
2022/08/01 06:56:49;;;;;;;7.22;4.65;;;;;;;26.60;46.99;101275.13;5042976;28;20052;-87
2022/08/01 06:59:26;;;;;;;6.93;4.95;;;;;;;26.68;47.32;101289.78;5051260;28;20045;-87
2022/08/01 07:05:15;;;;;;;6.75;4.35;;;;;;;26.78;46.95;101287.53;5017894;28;20057;-87
2022/08/01 07:07:58;;;;;;;;;;;;;;;26.59;47.24;101290.97;5075630;28;20048;-87
2022/08/01 07:10:26;;;;;;;5.55;3.95;;;;;;;26.92;46.89;101291.38;5042186;28;20227;-87
2022/08/01 07:12:55;;;;;;;5.45;3.72;;;;;;;27.05;46.17;101296.19;5053473;28;20156;-87
2022/08/01 07:15:46;;;;;;;;;;;;;;;26.83;47.06;101292.53;5043136;28;20040;-88
2022/08/01 07:18:21;;;;;;;4.85;3.40;;;;;;;27.17;46.32;101277.88;5052489;28;20034;-87
2022/08/01 07:41:41;;;;;;;4.22;2.65;;;;;;;27.82;44.39;101301.81;4908692;28;20041;-88
2022/08/01 07:44:33;;;;;;;4.15;2.45;;;;;;;27.90;43.50;101296.06;5049926;28;20086;-88
2022/08/01 07:48:12;;;;;;;3.85;2.45;;;;;;;27.94;43.66;101300.16;5050640;28;20090;-88
2022/08/01 07:50:40;;;;;;;3.80;2.53;;;;;;;28.00;43.89;101299.38;4974137;28;20138;-88
2022/08/01 07:53:46;;;;;;;;;;;;;;;27.79;44.67;101314.25;5056258;28;20045;-88
2022/08/01 07:56:31;;;;;;;4.03;2.60;;;;;;;28.12;43.84;101314.44;5050089;28;20334;-88
2022/08/01 07:59:04;;;;;;;4.18;2.78;;;;;;;28.27;42.89;101311.53;5047135;28;20033;-88
2022/08/01 08:01:59;;;;;;;3.60;2.53;;;;;;;28.27;42.92;101309.63;5054110;28;20110;-88
2022/08/01 08:04:50;;;;;;;4.25;2.60;;;;;;;28.34;43.32;101313.28;5046610;28;20052;-86
2022/08/01 08:07:28;;;;;;;4.20;2.70;;;;;;;28.44;43.07;101310.13;5047053;28;20041;-88
2022/08/01 08:10:14;;;;;;;5.10;3.05;;;;;;;28.48;42.97;101307.78;5036234;28;20048;-87
2022/08/01 08:16:03;;;;;;;4.57;3.17;;;;;;;28.65;42.44;101314.72;5033071;28;20049;-87
2022/08/01 08:22:50;;;;;;;;;;;;;;;;;;;;;
2022/08/01 08:26:23;;;;;;;5.50;3.28;;;;;;;28.85;41.61;101312.88;4979542;28;20049;-89
2022/08/01 08:30:13;;;;;;;;;;;;;;;;;;;;;
2022/08/01 08:33:40;;;;;;;5.28;2.30;;;;;;;28.90;40.93;101329.91;4945789;28;20046;-88
2022/08/01 08:36:11;;;;;;;4.30;2.53;;;;;;;28.93;41.41;101328.59;5045482;28;20045;-73
2022/08/01 08:38:40;;;;;;;5.55;2.67;;;;;;;28.94;41.40;101331.19;5054746;28;20444;-73
2022/08/01 08:41:09;;;;;;;4.68;2.55;;;;;;;28.97;41.63;101327.97;5048649;28;20069;-73
2022/08/01 08:43:37;;;;;;;4.50;2.42;;;;;;;29.02;41.77;101335.72;5047594;28;20519;-74
2022/08/01 08:46:08;;;;;;;3.65;2.38;;;;;;;29.08;41.71;101330.13;5033066;28;20046;-73
2022/08/01 08:48:38;;;;;;;4.18;2.70;;;;;;;29.12;41.47;101328.66;5034606;28;20502;-72
2022/08/01 08:51:08;;;;;;;3.80;2.40;;;;;;;29.19;41.58;101333.38;5045602;28;20041;-73
2022/08/01 08:53:43;;;;;;;3.85;2.40;;;;;;;29.30;40.96;101332.75;5047256;28;20048;-74
2022/08/01 08:56:13;;;;;;;3.13;2.00;;;;;;;29.36;40.92;101332.78;5034465;28;20285;-73
2022/08/01 08:58:44;;;;;;;3.60;2.33;;;;;;;29.43;40.90;101327.19;5027061;28;20045;-73
2022/08/01 09:01:13;;;;;;;3.30;2.28;;;;;;;29.51;40.33;101335.38;5047270;28;20045;-73
2022/08/01 09:03:41;;;;;;;3.72;2.03;;;;;;;29.59;40.20;101329.56;5047429;28;20057;-72
2022/08/01 09:06:09;;;;;;;3.33;2.00;;;;;;;29.69;39.87;101320.72;5065484;28;20066;-73
2022/08/01 09:08:39;;;;;;;3.50;2.13;;;;;;;29.80;39.96;101334.09;5045134;28;20045;-72
2022/08/01 09:11:07;;;;;;;3.33;2.00;;;;;;;29.89;40.17;101327.19;5050401;28;20353;-72
2022/08/01 09:13:35;;;;;;;4.10;2.00;;;;;;;30.02;40.15;101334.72;5050481;28;20045;-71
2022/08/01 09:16:18;;;;;;;3.20;2.05;;;;;;;30.20;39.27;101332.09;5050985;28;20128;-72
2022/08/01 09:18:46;;;;;;;3.30;2.03;;;;;;;30.31;39.75;101338.97;5049810;28;20037;-72
2022/08/01 09:21:24;;;;;;;2.92;1.83;;;;;;;30.47;38.91;101341.28;5039845;28;20535;-72
2022/08/01 09:23:58;;;;;;;4.03;2.13;;;;;;;30.61;38.78;101343.84;5049654;28;20529;-72
2022/08/01 09:26:30;;;;;;;3.08;2.10;;;;;;;30.79;37.72;101347.84;5051332;28;20513;-72
2022/08/01 09:29:00;;;;;;;3.70;1.85;;;;;;;30.90;38.37;101349.94;5048985;28;20047;-73
2022/08/01 09:31:29;;;;;;;3.60;1.80;;;;;;;31.04;37.83;101353.53;5052553;28;20041;-72
2022/08/01 09:34:07;;;;;;;3.38;1.58;;;;;;;31.17;37.48;101347.88;5049431;28;20110;-72
2022/08/01 09:36:52;;;;;;;3.53;1.83;;;;;;;31.32;36.81;101346.47;5051161;28;20092;-72
2022/08/01 09:39:24;;;;;;;2.72;1.50;;;;;;;31.45;37.20;101345.50;5049232;28;20044;-72
2022/08/01 09:41:53;;;;;;;2.70;1.60;;;;;;;31.56;36.88;101349.50;5041790;28;20094;-71
2022/08/01 09:44:39;;;;;;;2.70;1.83;;;;;;;31.73;35.46;101336.66;5060862;28;20068;-72
2022/08/01 09:47:13;;;;;;;2.90;1.80;;;;;;;31.83;36.14;101339.81;5050313;28;20055;-72
2022/08/01 09:49:43;;;;;;;3.15;1.80;;;;;;;31.95;35.66;101352.00;5038334;28;20044;-73
2022/08/01 09:52:21;;;;;;;2.80;1.70;;;;;;;32.05;35.77;101349.50;5042152;28;20626;-72
2022/08/01 09:54:56;;;;;;;3.08;1.70;;;;;;;32.17;35.13;101355.25;5049417;28;20572;-72
2022/08/01 09:57:25;;;;;;;2.63;1.67;;;;;;;32.20;35.44;101348.34;5051468;28;20052;-73
2022/08/01 09:59:54;;;;;;;3.38;2.20;;;;;;;32.29;35.21;101346.91;5048275;28;20140;-73
2022/08/01 10:02:30;;;;;;;3.50;1.90;;;;;;;32.36;34.98;101342.09;5052432;28;20051;-73
2022/08/01 10:04:58;;;;;;;3.15;1.88;;;;;;;32.40;34.89;101338.56;5055272;28;20044;-73
2022/08/01 10:07:37;;;;;;;3.38;1.92;;;;;;;32.49;34.80;101339.09;5036645;28;20056;-71
2022/08/01 10:10:14;;;;;;;4.50;2.20;;;;;;;32.57;34.20;101344.41;5049414;28;20045;-73
2022/08/01 10:12:44;;;;;;;2.75;2.08;;;;;;;32.58;34.15;101336.84;5050791;28;20064;-73
2022/08/01 10:15:16;;;;;;;3.20;2.03;;;;;;;32.62;34.02;101338.06;5047690;28;20049;-73
2022/08/01 10:17:54;;;;;;;3.10;1.90;;;;;;;32.68;33.53;101334.34;5050304;28;20433;-72
2022/08/01 10:20:27;;;;;;;3.47;1.77;;;;;;;32.70;33.81;101334.97;5043230;28;20046;-73
2022/08/01 10:23:01;;;;;;;2.80;1.90;;;;;;;32.73;33.90;101329.75;5056070;28;20049;-73
2022/08/01 10:25:41;;;;;;;2.60;1.63;;;;;;;32.79;33.61;101334.41;5049104;28;20501;-73
2022/08/01 10:28:16;;;;;;;2.83;1.80;;;;;;;32.82;33.81;101344.34;5042644;28;20547;-72
2022/08/01 10:30:51;;;;;;;3.97;2.00;;;;;;;32.84;33.34;101342.16;5038510;28;20065;-73
2022/08/01 10:33:23;;;;;;;2.40;1.50;;;;;;;32.91;32.77;101347.69;5051023;28;20037;-73
2022/08/01 10:36:11;;;;;;;2.55;1.55;;;;;;;32.91;33.10;101344.88;5049552;28;20041;-73
2022/08/01 10:38:41;;;;;;;2.95;1.70;;;;;;;32.97;32.64;101339.13;5049905;28;20099;-72
2022/08/01 10:41:15;;;;;;;3.22;1.70;;;;;;;32.98;32.49;101340.00;5031528;28;20063;-73
2022/08/01 10:43:44;;;;;;;2.90;1.65;;;;;;;33.00;32.21;101335.00;5070044;28;20045;-73
2022/08/01 10:46:14;;;;;;;2.85;1.95;;;;;;;33.00;31.92;101335.00;5046100;28;20394;-73
2022/08/01 10:48:50;;;;;;;2.20;1.38;;;;;;;33.03;31.33;101340.13;5057138;28;20052;-72
2022/08/01 10:51:21;;;;;;;2.55;1.40;;;;;;;32.98;31.83;101334.38;5049499;28;20521;-74
2022/08/01 10:54:10;;;;;;;2.83;1.48;;;;;;;32.95;31.58;101332.03;5049152;28;20052;-73
2022/08/01 10:56:45;;;;;;;1.95;1.35;;;;;;;32.94;30.97;101331.19;5049338;28;20115;-73
2022/08/01 10:59:21;;;;;;;2.05;1.30;;;;;;;32.89;31.61;101331.03;5047799;28;20183;-73
2022/08/01 11:02:10;;;;;;;2.08;1.30;;;;;;;32.82;31.69;101328.31;5044307;28;20049;-72
2022/08/01 11:04:54;;;;;;;1.88;1.23;;;;;;;32.81;30.86;101340.66;5040900;28;20148;-74
2022/08/01 11:07:35;;;;;;;2.55;1.40;;;;;;;32.78;31.51;101341.13;5049918;28;20053;-74
2022/08/01 11:10:10;;;;;;;2.03;1.20;;;;;;;32.74;31.55;101333.41;5048967;28;20503;-74
2022/08/01 11:12:44;;;;;;;2.28;1.30;;;;;;;32.70;31.45;101333.00;5049536;28;20041;-74
2022/08/01 11:15:27;;;;;;;2.00;1.20;;;;;;;32.68;30.40;101323.94;5030402;28;20045;-74
2022/08/01 11:17:59;;;;;;;1.40;1.10;;;;;;;32.60;31.54;101329.03;5049601;28;20036;-74
2022/08/01 11:20:31;;;;;;;1.90;1.10;;;;;;;32.57;30.77;101330.34;5047646;28;20040;-74
2022/08/01 11:23:17;;;;;;;1.38;1.00;;;;;;;32.53;30.82;101331.94;5049529;28;20049;-74
2022/08/01 11:26:07;;;;;;;1.77;1.10;;;;;;;32.54;30.90;101328.00;5057057;28;20450;-74
2022/08/01 11:28:40;;;;;;;1.88;0.90;;;;;;;32.54;31.36;101332.75;5020566;28;20386;-74
2022/08/01 11:31:28;;;;;;;2.10;1.23;;;;;;;32.57;31.47;101324.72;5050888;28;20432;-74
2022/08/01 11:34:04;;;;;;;1.73;1.10;;;;;;;32.60;31.03;101323.41;5048071;28;20125;-74
2022/08/01 11:36:32;;;;;;;1.60;1.02;;;;;;;32.64;30.89;101327.44;5044064;28;20040;-74
2022/08/01 11:39:20;;;;;;;1.40;1.10;;;;;;;32.65;30.74;101329.16;5048073;28;20444;-74
2022/08/01 11:41:49;;;;;;;1.92;1.20;;;;;;;32.70;30.84;101318.09;5049494;28;20128;-74
2022/08/01 11:44:25;;;;;;;2.50;1.17;;;;;;;32.77;30.32;101316.94;5047285;28;20460;-74
2022/08/01 11:47:02;;;;;;;1.50;1.10;;;;;;;32.78;29.65;101318.63;5049343;28;20712;-74
2022/08/01 11:49:50;;;;;;;1.40;1.02;;;;;;;32.81;29.42;101317.31;5047124;28;20045;-74
2022/08/01 11:52:20;;;;;;;1.25;1.00;;;;;;;32.81;29.92;101314.50;5034130;28;20548;-74
2022/08/01 11:54:51;;;;;;;1.65;0.88;;;;;;;32.87;29.81;101313.53;5069439;22;20055;-67
2022/08/01 11:57:22;;;;;;;1.92;0.80;;;;;;;32.93;29.72;101311.75;5046898;28;20049;-69
2022/08/01 11:59:53;;;;;;;1.50;0.90;;;;;;;32.97;29.38;101312.97;5045953;28;20072;-69
2022/08/01 12:02:39;;;;;;;1.90;1.10;;;;;;;33.00;29.66;101313.34;5047198;28;20056;-69
2022/08/01 12:05:10;;;;;;;1.80;1.02;;;;;;;33.08;29.79;101303.72;5046554;28;20094;-69
2022/08/01 12:07:41;;;;;;;1.17;0.95;;;;;;;33.11;29.30;101308.88;5047854;28;20052;-68
2022/08/01 12:10:11;;;;;;;2.70;1.45;;;;;;;33.18;28.92;101310.47;5046233;28;20098;-69
2022/08/01 12:12:44;;;;;;;2.30;1.10;;;;;;;33.26;28.46;101309.31;5047676;28;20540;-69
2022/08/01 12:15:14;;;;;;;1.77;1.02;;;;;;;33.31;28.88;101315.06;5046283;28;20053;-68
2022/08/01 12:17:44;;;;;;;1.60;1.02;;;;;;;33.35;28.98;101321.94;5047436;28;20083;-68
2022/08/01 12:20:28;;;;;;;1.95;1.13;;;;;;;33.41;29.04;101317.28;5059820;28;20045;-68
2022/08/01 12:23:00;;;;;;;1.55;1.17;;;;;;;33.46;28.80;101315.44;5047264;28;20041;-68
2022/08/01 12:25:28;;;;;;;1.70;1.17;;;;;;;33.50;28.58;101316.69;5033159;28;20079;-68
2022/08/01 12:28:00;;;;;;;1.67;1.10;;;;;;;33.58;28.37;101321.13;5046667;28;20048;-68
2022/08/01 12:30:34;;;;;;;1.42;1.05;;;;;;;33.61;28.79;101314.97;5053396;28;20118;-68
2022/08/01 12:33:04;;;;;;;2.72;1.20;;;;;;;33.63;28.82;101324.03;5050255;28;20124;-68